Terminal Aerodrome Forecast
Issued by NWS

Home | Current Version | Previous Version | Text Only | Print | Product List | Glossary On
Versions: 1 2 3 4 5 6 7 8 9 10 11 12 13 14
000
FTAK31 PANC 291126
TAFAGK
TAF
PAGK 291126Z 2912/3012 17008KT P6SM SCT060 BKN090
     FM291600 16012G20KT P6SM SCT050 BKN090
     FM300400 16009KT P6SM SCT050 BKN090=

USA.gov is the U.S. government's official web portal to all federal, state and local government web resources and services.